Time,TemperatureF,DewpointF,PressureIn,WindDirection,WindDirectionDegrees,WindSpeedMPH,WindSpeedGustMPH,Humidity,HourlyPrecipIn,Conditions,Clouds,dailyrainin,SoftwareType,DateUTC
2013-02-07 00:03:00,60.1,55.6,29.74,ENE,68,2.2,3.8,85,0.00,CLR,,0.00,WeatherDisplay:10.37,2013-02-07 06:03:00,
2013-02-07 00:08:00,60.1,55.9,29.74,NE,45,2.9,4.0,86,0.00,CLR,,0.00,WeatherDisplay:10.37,2013-02-07 06:08:00,
2013-02-07 00:13:00,60.1,56.2,29.74,East,90,2.9,4.6,87,0.00,CLR,,0.00,WeatherDisplay:10.37,2013-02-07 06:13:00,
2013-02-07 00:18:00,60.1,55.6,29.74,East,90,2.4,3.5,85,0.00,CLR,,0.00,WeatherDisplay:10.37,2013-02-07 06:18:00,
2013-02-07 00:23:00,60.3,55.4,29.74,East,90,2.6,3.6,84,0.00,CLR,,0.00,WeatherDisplay:10.37,2013-02-07 06:23:00,
2013-02-07 00:28:00,60.3,55.4,29.74,East,90,2.0,2.9,84,0.00,CLR,,0.00,WeatherDisplay:10.37,2013-02-07 06:28:00,
2013-02-07 00:33:00,60.4,55.9,29.74,ENE,68,2.4,2.9,85,0.00,CLR,,0.00,WeatherDisplay:10.37,2013-02-07 06:33:00,
2013-02-07 00:38:00,60.4,56.2,29.74,East,90,2.9,3.5,86,0.00,CLR,,0.00,WeatherDisplay:10.37,2013-02-07 06:38:00,
2013-02-07 00:43:00,60.4,56.2,29.74,ENE,68,2.4,3.5,86,0.00,CLR,,0.00,WeatherDisplay:10.37,2013-02-07 06:43:00,
2013-02-07 00:48:00,60.4,56.6,29.71,NE,45,2.9,4.6,87,0.00,CLR,,0.00,WeatherDisplay:10.37,2013-02-07 06:48:00,
2013-02-07 00:53:00,60.4,56.6,29.71,ENE,68,3.6,4.6,87,0.00,CLR,,0.00,WeatherDisplay:10.37,2013-02-07 06:53:00,
2013-02-07 00:58:00,60.4,56.6,29.71,ENE,68,4.0,4.6,87,0.00,CLR,,0.00,WeatherDisplay:10.37,2013-02-07 06:58:00,
2013-02-07 01:03:00,60.6,57.0,29.71,ESE,112,4.3,5.8,88,0.00,CLR,,0.00,WeatherDisplay:10.37,2013-02-07 07:03:00,
2013-02-07 01:08:00,60.6,56.7,29.71,East,90,2.9,3.6,87,0.00,CLR,,0.00,WeatherDisplay:10.37,2013-02-07 07:08:00,
2013-02-07 01:13:00,60.6,57.0,29.71,ENE,68,3.3,4.9,88,0.00,CLR,,0.00,WeatherDisplay:10.37,2013-02-07 07:13:00,
2013-02-07 01:18:00,60.6,57.0,29.71,ENE,68,2.9,4.6,88,0.00,CLR,,0.00,WeatherDisplay:10.37,2013-02-07 07:18:00,
2013-02-07 01:23:00,60.6,57.0,29.71,East,90,2.9,4.6,88,0.00,CLR,,0.00,WeatherDisplay:10.37,2013-02-07 07:23:00,
2013-02-07 01:28:00,60.6,57.0,29.71,East,90,3.3,3.8,88,0.00,CLR,,0.00,WeatherDisplay:10.37,2013-02-07 07:28:00,
2013-02-07 01:33:00,60.6,57.0,29.68,NNE,22,3.8,4.7,88,0.00,CLR,,0.00,WeatherDisplay:10.37,2013-02-07 07:33:00,
2013-02-07 01:38:00,60.6,57.0,29.68,ENE,68,3.8,5.8,88,0.00,CLR,,0.00,WeatherDisplay:10.37,2013-02-07 07:38:00,
2013-02-07 01:43:00,60.6,57.4,29.68,NE,45,4.7,6.0,89,0.00,CLR,,0.00,WeatherDisplay:10.37,2013-02-07 07:43:00,
2013-02-07 01:48:00,60.6,57.4,29.65,ENE,68,5.4,6.0,89,0.00,CLR,,0.00,WeatherDisplay:10.37,2013-02-07 07:48:00,
2013-02-07 01:53:00,60.6,57.7,29.65,ENE,68,3.8,6.0,90,0.00,CLR,,0.00,WeatherDisplay:10.37,2013-02-07 07:53:00,
2013-02-07 01:55:00,60.8,57.8,29.65,ENE,68,5.4,6.9,90,0.00,CLR,,0.00,WeatherDisplay:10.37,2013-02-07 07:55:00,
2013-02-07 02:00:00,60.8,57.8,29.65,ENE,68,4.0,5.8,90,0.00,CLR,,0.00,WeatherDisplay:10.37,2013-02-07 08:00:00,
2013-02-07 02:05:00,60.8,57.8,29.65,ENE,68,4.9,6.4,90,0.00,CLR,,0.00,WeatherDisplay:10.37,2013-02-07 08:05:00,
2013-02-07 02:10:00,61.0,58.0,29.65,East,90,4.0,8.1,90,0.00,CLR,,0.00,WeatherDisplay:10.37,2013-02-07 08:10:00,
2013-02-07 02:15:00,61.0,58.0,29.65,NE,45,3.3,4.6,90,0.00,CLR,,0.00,WeatherDisplay:10.37,2013-02-07 08:15:00,
2013-02-07 02:20:00,61.0,58.0,29.68,NE,45,2.6,3.5,90,0.00,CLR,,0.00,WeatherDisplay:10.37,2013-02-07 08:20:00,
2013-02-07 02:25:00,61.0,57.7,29.68,East,90,0.9,2.0,89,0.00,CLR,,0.00,WeatherDisplay:10.37,2013-02-07 08:25:00,
2013-02-07 02:30:00,61.0,57.7,29.68,East,90,2.4,3.1,89,0.00,CLR,,0.00,WeatherDisplay:10.37,2013-02-07 08:30:00,
2013-02-07 02:35:00,61.0,57.7,29.68,ESE,112,3.6,4.7,89,0.00,CLR,,0.00,WeatherDisplay:10.37,2013-02-07 08:35:00,
2013-02-07 02:40:00,61.0,57.7,29.68,East,90,4.7,5.8,89,0.00,CLR,,0.00,WeatherDisplay:10.37,2013-02-07 08:40:00,
2013-02-07 02:45:00,61.0,57.4,29.68,ESE,112,4.0,6.2,88,0.00,CLR,,0.00,WeatherDisplay:10.37,2013-02-07 08:45:00,
2013-02-07 02:50:00,61.0,57.4,29.65,East,90,5.4,5.9,88,0.00,CLR,,0.00,WeatherDisplay:10.37,2013-02-07 08:50:00,
2013-02-07 02:55:00,61.0,57.4,29.65,East,90,2.9,5.8,88,0.00,CLR,,0.00,WeatherDisplay:10.37,2013-02-07 08:55:00,
2013-02-07 03:00:00,61.0,57.7,29.65,East,90,6.0,7.4,89,0.00,CLR,,0.00,WeatherDisplay:10.37,2013-02-07 09:00:00,
2013-02-07 03:05:00,61.0,57.7,29.65,SE,135,5.6,6.4,89,0.00,CLR,,0.00,WeatherDisplay:10.37,2013-02-07 09:05:00,
2013-02-07 03:10:00,61.0,57.7,29.65,ESE,112,6.7,9.8,89,0.00,CLR,,0.00,WeatherDisplay:10.37,2013-02-07 09:10:00,
2013-02-07 03:15:00,61.0,58.0,29.65,ESE,112,9.4,11.5,90,0.00,CLR,,0.00,WeatherDisplay:10.37,2013-02-07 09:15:00,
2013-02-07 03:20:00,60.8,57.8,29.59,East,90,8.5,11.5,90,0.00,CLR,,0.00,WeatherDisplay:10.37,2013-02-07 09:20:00,
2013-02-07 03:25:00,61.0,58.3,29.59,ESE,112,5.6,13.8,91,0.00,CLR,,0.00,WeatherDisplay:10.37,2013-02-07 09:25:00,
2013-02-07 03:30:00,61.0,58.3,29.59,ESE,112,6.4,11.5,91,0.00,CLR,,0.00,WeatherDisplay:10.37,2013-02-07 09:30:00,
2013-02-07 03:35:00,61.0,58.6,29.59,ESE,112,9.8,12.7,92,0.00,CLR,,0.00,WeatherDisplay:10.37,2013-02-07 09:35:00,
2013-02-07 03:40:00,61.0,58.6,29.59,ESE,112,8.5,11.5,92,0.00,CLR,,0.00,WeatherDisplay:10.37,2013-02-07 09:40:00,
2013-02-07 03:45:00,61.0,58.6,29.59,East,90,11.2,15.2,92,0.00,CLR,,0.00,WeatherDisplay:10.37,2013-02-07 09:45:00,
2013-02-07 03:50:00,61.0,58.6,29.59,ENE,68,7.6,11.5,92,0.00,CLR,,0.00,WeatherDisplay:10.37,2013-02-07 09:50:00,
2013-02-07 03:55:00,61.2,58.8,29.59,East,90,10.0,15.4,92,0.00,CLR,,0.00,WeatherDisplay:10.37,2013-02-07 09:55:00,
2013-02-07 04:00:00,61.2,58.8,29.59,East,90,7.4,10.2,92,0.00,CLR,,0.00,WeatherDisplay:10.37,2013-02-07 10:00:00,
2013-02-07 04:05:00,61.2,58.5,29.56,ENE,68,9.4,12.7,91,0.00,CLR,,0.00,WeatherDisplay:10.37,2013-02-07 10:05:00,
2013-02-07 04:10:00,61.3,58.7,29.56,ESE,112,9.2,12.7,91,0.00,CLR,,0.00,WeatherDisplay:10.37,2013-02-07 10:10:00,
2013-02-07 04:15:00,61.3,58.7,29.56,East,90,6.0,8.1,91,0.00,CLR,,0.00,WeatherDisplay:10.37,2013-02-07 10:15:00,
2013-02-07 04:20:00,61.3,58.4,29.59,ESE,112,4.7,10.4,90,0.00,CLR,,0.00,WeatherDisplay:10.37,2013-02-07 10:20:00,
2013-02-07 04:25:00,61.3,58.4,29.59,East,90,4.7,10.0,90,0.00,CLR,,0.00,WeatherDisplay:10.37,2013-02-07 10:25:00,
2013-02-07 04:30:00,61.5,58.2,29.59,East,90,5.9,8.1,89,0.00,CLR,,0.00,WeatherDisplay:10.37,2013-02-07 10:30:00,
2013-02-07 04:35:00,61.5,58.2,29.59,East,90,5.4,9.4,89,0.00,CLR,,0.00,WeatherDisplay:10.37,2013-02-07 10:35:00,
2013-02-07 04:40:00,61.5,57.6,29.59,East,90,8.1,10.4,87,0.00,CLR,,0.00,WeatherDisplay:10.37,2013-02-07 10:40:00,
2013-02-07 04:45:00,61.3,57.4,29.59,East,90,8.1,12.7,87,0.00,CLR,,0.00,WeatherDisplay:10.37,2013-02-07 10:45:00,
2013-02-07 04:50:00,61.3,57.4,29.59,ENE,68,4.5,8.5,87,0.00,CLR,,0.00,WeatherDisplay:10.37,2013-02-07 10:50:00,
2013-02-07 04:55:00,61.3,57.4,29.59,ENE,68,6.7,9.2,87,0.00,CLR,,0.00,WeatherDisplay:10.37,2013-02-07 10:55:00,
2013-02-07 05:00:00,61.3,57.4,29.59,East,90,5.4,6.9,87,0.00,CLR,,0.00,WeatherDisplay:10.37,2013-02-07 11:00:00,
2013-02-07 05:05:00,61.2,57.3,29.56,East,90,7.1,10.4,87,0.00,CLR,,0.00,WeatherDisplay:10.37,2013-02-07 11:05:00,
2013-02-07 05:10:00,61.2,57.6,29.56,East,90,5.6,9.2,88,0.00,CLR,,0.00,WeatherDisplay:10.37,2013-02-07 11:10:00,
2013-02-07 05:15:00,61.2,57.6,29.56,East,90,7.4,9.2,88,0.00,CLR,,0.00,WeatherDisplay:10.37,2013-02-07 11:15:00,
2013-02-07 05:20:00,61.2,57.9,29.56,East,90,5.9,9.2,89,0.00,CLR,,0.00,WeatherDisplay:10.37,2013-02-07 11:20:00,
2013-02-07 05:25:00,61.3,58.4,29.56,East,90,9.7,15.0,90,0.00,CLR,,0.00,WeatherDisplay:10.37,2013-02-07 11:25:00,
2013-02-07 05:30:00,61.3,58.4,29.56,East,90,6.9,9.4,90,0.00,CLR,,0.00,WeatherDisplay:10.37,2013-02-07 11:30:00,
2013-02-07 05:35:00,61.3,58.4,29.56,ESE,112,4.3,6.9,90,0.00,CLR,,0.00,WeatherDisplay:10.37,2013-02-07 11:35:00,
2013-02-07 05:40:00,61.3,58.7,29.56,East,90,7.1,8.1,91,0.00,CLR,,0.00,WeatherDisplay:10.37,2013-02-07 11:40:00,
2013-02-07 05:46:00,61.3,58.7,29.56,NE,45,5.6,8.1,91,0.00,CLR,,0.00,WeatherDisplay:10.37,2013-02-07 11:46:00,
2013-02-07 05:51:00,61.3,58.7,29.53,East,90,7.4,9.7,91,0.00,CLR,,0.00,WeatherDisplay:10.37,2013-02-07 11:51:00,
2013-02-07 05:57:00,61.3,58.7,29.53,East,90,7.1,9.2,91,0.00,CLR,,0.00,WeatherDisplay:10.37,2013-02-07 11:57:00,
2013-02-07 06:02:00,61.5,58.9,29.53,ENE,68,7.4,12.7,91,0.00,CLR,,0.00,WeatherDisplay:10.37,2013-02-07 12:02:00,
2013-02-07 06:07:00,61.5,58.9,29.53,ENE,68,9.2,11.5,91,0.00,CLR,,0.00,WeatherDisplay:10.37,2013-02-07 12:07:00,
2013-02-07 06:12:00,61.3,58.4,29.53,East,90,11.2,13.8,90,0.00,CLR,,0.00,WeatherDisplay:10.37,2013-02-07 12:12:00,
2013-02-07 06:18:00,61.3,58.4,29.50,East,90,9.0,12.1,90,0.00,CLR,,0.00,WeatherDisplay:10.37,2013-02-07 12:18:00,
2013-02-07 06:23:00,61.3,58.4,29.50,ENE,68,8.5,13.8,90,0.00,CLR,,0.00,WeatherDisplay:10.37,2013-02-07 12:23:00,
2013-02-07 06:28:00,61.3,58.1,29.50,ENE,68,8.5,13.8,89,0.00,CLR,,0.00,WeatherDisplay:10.37,2013-02-07 12:28:00,
2013-02-07 06:33:00,61.3,58.1,29.50,East,90,8.1,10.4,89,0.00,CLR,,0.00,WeatherDisplay:10.37,2013-02-07 12:33:00,
2013-02-07 06:39:00,61.2,57.9,29.50,ENE,68,6.7,9.8,89,0.00,CLR,,0.00,WeatherDisplay:10.37,2013-02-07 12:39:00,
2013-02-07 06:44:00,61.2,57.9,29.50,NE,45,3.8,10.4,89,0.00,CLR,,0.00,WeatherDisplay:10.37,2013-02-07 12:44:00,
2013-02-07 06:49:00,61.2,57.9,29.53,North,0,3.8,4.6,89,0.00,CLR,,0.00,WeatherDisplay:10.37,2013-02-07 12:49:00,
2013-02-07 06:55:00,61.2,58.2,29.53,NNE,22,7.1,8.7,90,0.00,CLR,,0.00,WeatherDisplay:10.37,2013-02-07 12:55:00,
2013-02-07 07:00:00,61.2,58.2,29.53,NNW,338,8.1,11.5,90,0.00,CLR,,0.00,WeatherDisplay:10.37,2013-02-07 13:00:00,
2013-02-07 07:06:00,61.0,58.0,29.53,NNW,338,10.2,16.1,90,0.00,CLR,,0.00,WeatherDisplay:10.37,2013-02-07 13:06:00,
2013-02-07 07:11:00,60.4,56.9,29.53,North,0,7.4,12.7,88,0.00,CLR,,0.00,WeatherDisplay:10.37,2013-02-07 13:11:00,
2013-02-07 07:16:00,59.9,55.1,29.53,North,0,14.5,21.9,84,0.00,CLR,,0.00,WeatherDisplay:10.37,2013-02-07 13:16:00,
2013-02-07 07:21:00,59.7,55.2,29.53,North,0,13.0,18.4,85,0.00,CLR,,0.00,WeatherDisplay:10.37,2013-02-07 13:21:00,
2013-02-07 07:26:00,59.7,55.5,29.53,NW,315,9.7,12.3,86,0.00,CLR,,0.00,WeatherDisplay:10.37,2013-02-07 13:26:00,
2013-02-07 07:31:00,59.5,55.3,29.53,North,0,6.0,10.7,86,0.00,CLR,,0.00,WeatherDisplay:10.37,2013-02-07 13:31:00,
2013-02-07 07:37:00,59.4,55.2,29.56,NNE,22,16.6,23.0,86,0.00,CLR,,0.00,WeatherDisplay:10.37,2013-02-07 13:37:00,
2013-02-07 07:42:00,59.5,55.7,29.56,NNW,338,14.7,21.9,87,0.00,CLR,,0.00,WeatherDisplay:10.37,2013-02-07 13:42:00,
2013-02-07 07:48:00,59.5,56.0,29.56,North,0,12.3,15.4,88,0.00,CLR,,0.00,WeatherDisplay:10.37,2013-02-07 13:48:00,
2013-02-07 07:53:00,59.7,55.8,29.56,North,0,15.4,19.6,87,0.00,CLR,,0.00,WeatherDisplay:10.37,2013-02-07 13:53:00,
2013-02-07 07:58:00,59.9,55.7,29.56,NNE,22,7.8,17.3,86,0.00,CLR,,0.00,WeatherDisplay:10.37,2013-02-07 13:58:00,
2013-02-07 08:04:00,60.1,55.6,29.56,North,0,10.0,17.0,85,0.00,CLR,,0.00,WeatherDisplay:10.37,2013-02-07 14:04:00,
2013-02-07 08:09:00,60.1,55.2,29.56,North,0,10.0,12.7,84,0.00,CLR,,0.00,WeatherDisplay:10.37,2013-02-07 14:09:00,
2013-02-07 08:14:00,60.3,54.4,29.56,North,0,12.5,19.6,81,0.00,CLR,,0.00,WeatherDisplay:10.37,2013-02-07 14:14:00,
2013-02-07 08:19:00,60.3,53.4,29.56,NNE,22,14.0,21.9,78,0.00,CLR,,0.00,WeatherDisplay:10.37,2013-02-07 14:19:00,
2013-02-07 08:24:00,60.4,53.2,29.56,North,0,13.8,19.6,77,0.00,CLR,,0.00,WeatherDisplay:10.37,2013-02-07 14:24:00,
2013-02-07 08:29:00,60.6,53.4,29.56,North,0,6.9,10.4,77,0.00,CLR,,0.00,WeatherDisplay:10.37,2013-02-07 14:29:00,
2013-02-07 08:34:00,60.6,52.6,29.56,North,0,12.1,13.8,75,0.00,CLR,,0.00,WeatherDisplay:10.37,2013-02-07 14:34:00,
2013-02-07 08:39:00,60.6,52.6,29.56,North,0,11.8,14.7,75,0.00,CLR,,0.00,WeatherDisplay:10.37,2013-02-07 14:39:00,
2013-02-07 08:44:00,60.8,52.1,29.56,NE,45,10.0,12.3,73,0.00,CLR,,0.00,WeatherDisplay:10.37,2013-02-07 14:44:00,
2013-02-07 08:50:00,61.0,51.9,29.56,NE,45,9.2,11.5,72,0.00,CLR,,0.00,WeatherDisplay:10.37,2013-02-07 14:50:00,
2013-02-07 08:55:00,61.0,51.1,29.56,ENE,68,7.6,15.0,70,0.00,CLR,,0.00,WeatherDisplay:10.37,2013-02-07 14:55:00,
2013-02-07 09:00:00,61.3,51.1,29.56,NE,45,9.4,12.7,69,0.00,CLR,,0.00,WeatherDisplay:10.37,2013-02-07 15:00:00,
2013-02-07 09:05:00,61.5,51.3,29.53,ENE,68,10.5,12.7,69,0.00,CLR,,0.00,WeatherDisplay:10.37,2013-02-07 15:05:00,
2013-02-07 09:10:00,61.7,50.6,29.53,NNE,22,9.4,13.8,67,0.00,CLR,,0.00,WeatherDisplay:10.37,2013-02-07 15:10:00,
2013-02-07 09:15:00,62.4,51.3,29.53,NE,45,10.2,12.7,67,0.00,CLR,,0.00,WeatherDisplay:10.37,2013-02-07 15:15:00,
2013-02-07 09:20:00,62.8,51.2,29.53,NE,45,8.5,15.9,66,0.00,CLR,,0.00,WeatherDisplay:10.37,2013-02-07 15:20:00,
2013-02-07 09:25:00,62.6,49.8,29.53,ENE,68,9.4,12.3,63,0.00,CLR,,0.00,WeatherDisplay:10.37,2013-02-07 15:25:00,
2013-02-07 09:30:00,63.0,49.7,29.53,NE,45,12.3,16.1,62,0.00,CLR,,0.00,WeatherDisplay:10.37,2013-02-07 15:30:00,
2013-02-07 09:35:00,63.1,50.8,29.53,NE,45,7.6,11.5,64,0.00,CLR,,0.00,WeatherDisplay:10.37,2013-02-07 15:35:00,
2013-02-07 09:40:00,64.2,50.5,29.53,NE,45,7.6,10.4,61,0.00,CLR,,0.00,WeatherDisplay:10.37,2013-02-07 15:40:00,
2013-02-07 09:45:00,63.9,47.9,29.53,ENE,68,10.0,15.0,56,0.00,CLR,,0.00,WeatherDisplay:10.37,2013-02-07 15:45:00,
2013-02-07 09:50:00,64.6,48.0,29.53,ENE,68,9.4,13.8,55,0.00,CLR,,0.00,WeatherDisplay:10.37,2013-02-07 15:50:00,
2013-02-07 09:55:00,64.9,48.9,29.53,NE,45,7.6,11.2,56,0.00,CLR,,0.00,WeatherDisplay:10.37,2013-02-07 15:55:00,
2013-02-07 10:00:00,65.3,46.7,29.53,ENE,68,6.7,15.0,51,0.00,CLR,,0.00,WeatherDisplay:10.37,2013-02-07 16:00:00,
2013-02-07 10:05:00,66.0,47.4,29.53,ENE,68,7.1,11.5,51,0.00,CLR,,0.00,WeatherDisplay:10.37,2013-02-07 16:05:00,
2013-02-07 10:10:00,66.4,46.1,29.53,NNE,22,8.1,12.7,48,0.00,CLR,,0.00,WeatherDisplay:10.37,2013-02-07 16:10:00,
2013-02-07 10:15:00,66.7,45.3,29.53,East,90,11.2,17.3,46,0.00,CLR,,0.00,WeatherDisplay:10.37,2013-02-07 16:15:00,
2013-02-07 10:20:00,67.6,46.1,29.53,East,90,9.4,12.5,46,0.00,CLR,,0.00,WeatherDisplay:10.37,2013-02-07 16:20:00,
2013-02-07 10:25:00,67.8,44.5,29.53,NE,45,7.1,12.7,43,0.00,CLR,,0.00,WeatherDisplay:10.37,2013-02-07 16:25:00,
2013-02-07 10:30:00,68.4,44.4,29.53,NE,45,9.4,11.5,42,0.00,CLR,,0.00,WeatherDisplay:10.37,2013-02-07 16:30:00,
2013-02-07 10:35:00,68.7,44.1,29.53,ENE,68,6.0,9.2,41,0.00,CLR,,0.00,WeatherDisplay:10.37,2013-02-07 16:35:00,
2013-02-07 10:40:00,69.1,43.7,29.53,ENE,68,6.2,10.4,40,0.00,CLR,,0.00,WeatherDisplay:10.37,2013-02-07 16:40:00,
2013-02-07 10:45:00,69.1,42.4,29.53,NNE,22,10.0,11.5,38,0.00,CLR,,0.00,WeatherDisplay:10.37,2013-02-07 16:45:00,
2013-02-07 10:50:00,69.3,41.9,29.56,NE,45,7.6,10.4,37,0.00,CLR,,0.00,WeatherDisplay:10.37,2013-02-07 16:50:00,
2013-02-07 10:55:00,69.6,42.2,29.56,NNE,22,7.1,10.4,37,0.00,CLR,,0.00,WeatherDisplay:10.37,2013-02-07 16:55:00,
2013-02-07 11:00:00,69.6,42.2,29.56,NNE,22,7.4,8.5,37,0.00,CLR,,0.00,WeatherDisplay:10.37,2013-02-07 17:00:00,
2013-02-07 11:05:00,70.3,42.8,29.56,NE,45,6.7,8.1,37,0.00,CLR,,0.00,WeatherDisplay:10.37,2013-02-07 17:05:00,
2013-02-07 11:10:00,70.7,42.4,29.56,North,0,5.6,8.1,36,0.00,CLR,,0.00,WeatherDisplay:10.37,2013-02-07 17:10:00,
2013-02-07 11:15:00,70.7,42.4,29.56,NNE,22,7.8,9.2,36,0.00,CLR,,0.00,WeatherDisplay:10.37,2013-02-07 17:15:00,
2013-02-07 11:20:00,70.9,41.9,29.56,NNW,338,6.9,9.2,35,0.00,CLR,,0.00,WeatherDisplay:10.37,2013-02-07 17:20:00,
2013-02-07 11:25:00,70.7,42.4,29.56,NE,45,6.2,10.4,36,0.00,CLR,,0.00,WeatherDisplay:10.37,2013-02-07 17:25:00,
2013-02-07 11:30:00,70.7,40.9,29.56,North,0,8.7,11.5,34,0.00,CLR,,0.00,WeatherDisplay:10.37,2013-02-07 17:30:00,
2013-02-07 11:35:00,71.1,41.3,29.56,NE,45,8.5,9.8,34,0.00,CLR,,0.00,WeatherDisplay:10.37,2013-02-07 17:35:00,
2013-02-07 11:40:00,70.9,41.1,29.56,NNE,22,8.5,12.7,34,0.00,CLR,,0.00,WeatherDisplay:10.37,2013-02-07 17:40:00,
2013-02-07 11:45:00,71.1,41.3,29.56,ENE,68,6.7,11.5,34,0.00,CLR,,0.00,WeatherDisplay:10.37,2013-02-07 17:45:00,
2013-02-07 11:50:00,71.4,42.3,29.56,ENE,68,7.6,9.2,35,0.00,CLR,,0.00,WeatherDisplay:10.37,2013-02-07 17:50:00,
2013-02-07 11:55:00,71.4,42.3,29.56,North,0,6.4,8.1,35,0.00,CLR,,0.00,WeatherDisplay:10.37,2013-02-07 17:55:00,
2013-02-07 12:00:00,72.5,43.3,29.56,North,0,3.6,4.7,35,0.00,CLR,,0.00,WeatherDisplay:10.37,2013-02-07 18:00:00,
2013-02-07 12:05:00,72.3,42.4,29.56,ENE,68,5.9,6.9,34,0.00,CLR,,0.00,WeatherDisplay:10.37,2013-02-07 18:05:00,
2013-02-07 12:10:00,72.3,41.6,29.56,NNE,22,6.2,8.1,33,0.00,CLR,,0.00,WeatherDisplay:10.37,2013-02-07 18:10:00,
2013-02-07 12:15:00,72.3,41.6,29.56,NNE,22,6.4,9.2,33,0.00,CLR,,0.00,WeatherDisplay:10.37,2013-02-07 18:15:00,
2013-02-07 12:20:00,73.0,42.2,29.56,NNE,22,2.0,5.8,33,0.00,CLR,,0.00,WeatherDisplay:10.37,2013-02-07 18:20:00,
2013-02-07 12:25:00,73.4,41.7,29.56,WNW,292,4.7,10.4,32,0.00,CLR,,0.00,WeatherDisplay:10.37,2013-02-07 18:25:00,
2013-02-07 12:30:00,73.2,42.4,29.56,West,270,6.9,9.2,33,0.00,CLR,,0.00,WeatherDisplay:10.37,2013-02-07 18:30:00,
2013-02-07 12:35:00,73.6,41.9,29.56,West,270,6.0,6.2,32,0.00,CLR,,0.00,WeatherDisplay:10.37,2013-02-07 18:35:00,
2013-02-07 12:40:00,73.6,41.9,29.56,West,270,7.1,9.2,32,0.00,CLR,,0.00,WeatherDisplay:10.37,2013-02-07 18:40:00,
2013-02-07 12:45:00,74.1,42.4,29.56,WNW,292,7.1,9.2,32,0.00,CLR,,0.00,WeatherDisplay:10.37,2013-02-07 18:45:00,
2013-02-07 12:50:00,74.1,42.4,29.56,West,270,4.7,6.9,32,0.00,CLR,,0.00,WeatherDisplay:10.37,2013-02-07 18:50:00,
2013-02-07 12:55:00,74.1,42.4,29.56,WNW,292,5.9,9.7,32,0.00,CLR,,0.00,WeatherDisplay:10.37,2013-02-07 18:55:00,
2013-02-07 13:00:00,74.1,42.4,29.56,West,270,5.4,8.5,32,0.00,CLR,,0.00,WeatherDisplay:10.37,2013-02-07 19:00:00,
2013-02-07 13:05:00,74.8,43.0,29.56,West,270,4.0,5.8,32,0.00,CLR,,0.00,WeatherDisplay:10.37,2013-02-07 19:05:00,
2013-02-07 13:10:00,74.5,42.7,29.56,WNW,292,9.0,11.5,32,0.00,CLR,,0.00,WeatherDisplay:10.37,2013-02-07 19:10:00,
2013-02-07 13:15:00,74.8,42.2,29.56,SW,225,5.4,8.1,31,0.00,CLR,,0.00,WeatherDisplay:10.37,2013-02-07 19:15:00,
2013-02-07 13:20:00,73.8,41.2,29.56,West,270,6.0,9.2,31,0.00,CLR,,0.00,WeatherDisplay:10.37,2013-02-07 19:20:00,
2013-02-07 13:25:00,73.8,41.2,29.56,WSW,248,7.6,10.4,31,0.00,CLR,,0.00,WeatherDisplay:10.37,2013-02-07 19:25:00,
2013-02-07 13:30:00,74.7,42.0,29.56,West,270,8.7,10.5,31,0.00,CLR,,0.00,WeatherDisplay:10.37,2013-02-07 19:30:00,
2013-02-07 13:35:00,75.0,42.3,29.56,West,270,6.7,8.1,31,0.00,CLR,,0.00,WeatherDisplay:10.37,2013-02-07 19:35:00,
2013-02-07 13:40:00,74.7,42.8,29.56,NW,315,4.9,8.1,32,0.00,CLR,,0.00,WeatherDisplay:10.37,2013-02-07 19:40:00,
2013-02-07 13:45:00,75.4,42.6,29.56,NW,315,8.5,10.4,31,0.00,CLR,,0.00,WeatherDisplay:10.37,2013-02-07 19:45:00,
2013-02-07 13:50:00,75.4,42.6,29.56,West,270,4.7,9.2,31,0.00,CLR,,0.00,WeatherDisplay:10.37,2013-02-07 19:50:00,
2013-02-07 13:55:00,75.9,42.2,29.56,West,270,6.7,10.2,30,0.00,CLR,,0.00,WeatherDisplay:10.37,2013-02-07 19:55:00,
2013-02-07 14:00:00,74.7,41.2,29.56,West,270,9.4,11.5,30,0.00,CLR,,0.00,WeatherDisplay:10.37,2013-02-07 20:00:00,
2013-02-07 14:05:00,75.0,42.3,29.56,NW,315,5.9,6.9,31,0.00,CLR,,0.00,WeatherDisplay:10.37,2013-02-07 20:05:00,
2013-02-07 14:10:00,74.1,41.5,29.56,NNW,338,7.4,10.7,31,0.00,CLR,,0.00,WeatherDisplay:10.37,2013-02-07 20:10:00,
2013-02-07 14:15:00,74.7,42.0,29.56,West,270,9.7,11.5,31,0.00,CLR,,0.00,WeatherDisplay:10.37,2013-02-07 20:15:00,
2013-02-07 14:20:00,74.7,42.0,29.56,WNW,292,7.8,10.4,31,0.00,CLR,,0.00,WeatherDisplay:10.37,2013-02-07 20:20:00,
2013-02-07 14:25:00,75.7,42.9,29.56,West,270,8.1,10.7,31,0.00,CLR,,0.00,WeatherDisplay:10.37,2013-02-07 20:25:00,
2013-02-07 14:30:00,75.6,42.8,29.56,NW,315,10.7,12.3,31,0.00,CLR,,0.00,WeatherDisplay:10.37,2013-02-07 20:30:00,
2013-02-07 14:35:00,74.1,42.4,29.53,NW,315,6.4,12.7,32,0.00,CLR,,0.00,WeatherDisplay:10.37,2013-02-07 20:35:00,
2013-02-07 14:40:00,73.6,41.9,29.53,NW,315,8.1,11.5,32,0.00,CLR,,0.00,WeatherDisplay:10.37,2013-02-07 20:40:00,
2013-02-07 14:45:00,74.3,42.5,29.53,NW,315,8.7,9.8,32,0.00,CLR,,0.00,WeatherDisplay:10.37,2013-02-07 20:45:00,
2013-02-07 14:50:00,73.6,41.9,29.53,WNW,292,6.4,8.1,32,0.00,CLR,,0.00,WeatherDisplay:10.37,2013-02-07 20:50:00,
2013-02-07 14:55:00,74.1,42.4,29.53,West,270,4.9,10.5,32,0.00,CLR,,0.00,WeatherDisplay:10.37,2013-02-07 20:55:00,
2013-02-07 15:00:00,73.9,42.2,29.53,WNW,292,6.7,15.0,32,0.00,CLR,,0.00,WeatherDisplay:10.37,2013-02-07 21:00:00,
2013-02-07 15:05:00,73.8,42.0,29.56,WNW,292,8.7,11.5,32,0.00,CLR,,0.00,WeatherDisplay:10.37,2013-02-07 21:05:00,
2013-02-07 15:10:00,74.1,42.4,29.56,WNW,292,7.6,12.1,32,0.00,CLR,,0.00,WeatherDisplay:10.37,2013-02-07 21:10:00,
2013-02-07 15:15:00,74.1,42.4,29.56,West,270,7.4,10.4,32,0.00,CLR,,0.00,WeatherDisplay:10.37,2013-02-07 21:15:00,
2013-02-07 15:20:00,73.8,42.0,29.56,North,0,7.8,13.8,32,0.00,CLR,,0.00,WeatherDisplay:10.37,2013-02-07 21:20:00,
2013-02-07 15:25:00,72.5,41.7,29.56,WNW,292,7.6,10.4,33,0.00,CLR,,0.00,WeatherDisplay:10.37,2013-02-07 21:25:00,
2013-02-07 15:30:00,73.0,42.2,29.56,WNW,292,6.0,11.5,33,0.00,CLR,,0.00,WeatherDisplay:10.37,2013-02-07 21:30:00,
2013-02-07 15:35:00,73.4,42.5,29.56,West,270,8.7,10.5,33,0.00,CLR,,0.00,WeatherDisplay:10.37,2013-02-07 21:35:00,
2013-02-07 15:40:00,73.4,42.5,29.56,North,0,6.4,9.2,33,0.00,CLR,,0.00,WeatherDisplay:10.37,2013-02-07 21:40:00,
2013-02-07 15:45:00,73.4,42.5,29.56,North,0,6.7,15.0,33,0.00,CLR,,0.00,WeatherDisplay:10.37,2013-02-07 21:45:00,
2013-02-07 15:50:00,73.2,42.4,29.56,NW,315,8.1,9.2,33,0.00,CLR,,0.00,WeatherDisplay:10.37,2013-02-07 21:50:00,
2013-02-07 15:55:00,72.9,42.1,29.56,North,0,8.7,12.7,33,0.00,CLR,,0.00,WeatherDisplay:10.37,2013-02-07 21:55:00,
2013-02-07 16:00:00,73.0,42.2,29.56,North,0,7.6,8.5,33,0.00,CLR,,0.00,WeatherDisplay:10.37,2013-02-07 22:00:00,
2013-02-07 16:05:00,72.7,42.7,29.56,NNW,338,6.9,9.2,34,0.00,CLR,,0.00,WeatherDisplay:10.37,2013-02-07 22:05:00,
2013-02-07 16:10:00,72.3,42.4,29.56,WNW,292,8.5,11.5,34,0.00,CLR,,0.00,WeatherDisplay:10.37,2013-02-07 22:10:00,
2013-02-07 16:15:00,72.7,42.7,29.56,WNW,292,6.4,7.4,34,0.00,CLR,,0.00,WeatherDisplay:10.37,2013-02-07 22:15:00,
2013-02-07 16:20:00,72.1,42.2,29.56,North,0,6.4,9.2,34,0.00,CLR,,0.00,WeatherDisplay:10.37,2013-02-07 22:20:00,
2013-02-07 16:25:00,71.8,41.9,29.56,North,0,6.2,10.4,34,0.00,CLR,,0.00,WeatherDisplay:10.37,2013-02-07 22:25:00,
2013-02-07 16:30:00,71.8,41.9,29.56,NNW,338,7.6,9.2,34,0.00,CLR,,0.00,WeatherDisplay:10.37,2013-02-07 22:30:00,
2013-02-07 16:35:00,71.2,42.2,29.59,WNW,292,7.1,11.5,35,0.00,CLR,,0.00,WeatherDisplay:10.37,2013-02-07 22:35:00,
2013-02-07 16:40:00,70.7,41.7,29.59,WNW,292,6.0,8.1,35,0.00,CLR,,0.00,WeatherDisplay:10.37,2013-02-07 22:40:00,
2013-02-07 16:45:00,70.9,42.6,29.59,North,0,4.9,5.8,36,0.00,CLR,,0.00,WeatherDisplay:10.37,2013-02-07 22:45:00,
2013-02-07 16:50:00,70.5,42.3,29.59,NNW,338,5.9,10.4,36,0.00,CLR,,0.00,WeatherDisplay:10.37,2013-02-07 22:50:00,
2013-02-07 16:55:00,70.2,41.9,29.59,North,0,7.6,9.2,36,0.00,CLR,,0.00,WeatherDisplay:10.37,2013-02-07 22:55:00,
2013-02-07 17:00:00,69.8,41.6,29.59,NW,315,5.9,8.1,36,0.00,CLR,,0.00,WeatherDisplay:10.37,2013-02-07 23:00:00,
2013-02-07 17:05:00,69.4,42.0,29.56,WNW,292,5.6,7.6,37,0.00,CLR,,0.00,WeatherDisplay:10.37,2013-02-07 23:05:00,
2013-02-07 17:10:00,69.3,41.9,29.56,WNW,292,5.4,7.8,37,0.00,CLR,,0.00,WeatherDisplay:10.37,2013-02-07 23:10:00,
2013-02-07 17:15:00,68.7,42.1,29.56,North,0,4.0,5.8,38,0.00,CLR,,0.00,WeatherDisplay:10.37,2013-02-07 23:15:00,
2013-02-07 17:20:00,68.4,41.8,29.59,North,0,6.0,6.9,38,0.00,CLR,,0.00,WeatherDisplay:10.37,2013-02-07 23:20:00,
2013-02-07 17:25:00,68.0,42.1,29.59,NW,315,4.3,5.4,39,0.00,CLR,,0.00,WeatherDisplay:10.37,2013-02-07 23:25:00,
2013-02-07 17:30:00,67.8,42.6,29.59,WNW,292,2.9,4.6,40,0.00,CLR,,0.00,WeatherDisplay:10.37,2013-02-07 23:30:00,
2013-02-07 17:35:00,67.5,42.9,29.59,NNW,338,2.4,6.9,41,0.00,CLR,,0.00,WeatherDisplay:10.37,2013-02-07 23:35:00,
2013-02-07 17:40:00,67.1,42.6,29.59,NNW,338,3.1,4.6,41,0.00,CLR,,0.00,WeatherDisplay:10.37,2013-02-07 23:40:00,
2013-02-07 17:45:00,66.9,43.1,29.59,WNW,292,3.8,5.4,42,0.00,CLR,,0.00,WeatherDisplay:10.37,2013-02-07 23:45:00,
2013-02-07 17:50:00,66.6,42.7,29.59,NNW,338,2.9,3.6,42,0.00,CLR,,0.00,WeatherDisplay:10.37,2013-02-07 23:50:00,
2013-02-07 17:55:00,66.4,43.2,29.59,WNW,292,2.6,4.6,43,0.00,CLR,,0.00,WeatherDisplay:10.37,2013-02-07 23:55:00,
2013-02-07 18:00:00,66.0,42.9,29.59,WNW,292,2.0,3.5,43,0.00,CLR,,0.00,WeatherDisplay:10.37,2013-02-08 00:00:00,
2013-02-07 18:05:00,65.8,43.3,29.59,NW,315,2.9,3.6,44,0.00,CLR,,0.00,WeatherDisplay:10.37,2013-02-08 00:05:00,
2013-02-07 18:10:00,65.8,43.3,29.59,WNW,292,2.4,4.9,44,0.00,CLR,,0.00,WeatherDisplay:10.37,2013-02-08 00:10:00,
2013-02-07 18:15:00,65.5,43.6,29.59,NW,315,3.3,3.8,45,0.00,CLR,,0.00,WeatherDisplay:10.37,2013-02-08 00:15:00,
2013-02-07 18:20:00,65.3,43.4,29.62,WNW,292,1.6,2.6,45,0.00,CLR,,0.00,WeatherDisplay:10.37,2013-02-08 00:20:00,
2013-02-07 18:25:00,65.1,43.2,29.62,North,0,0.0,2.3,45,0.00,CLR,,0.00,WeatherDisplay:10.37,2013-02-08 00:25:00,
2013-02-07 18:30:00,64.6,42.7,29.62,NNW,338,0.9,2.3,45,0.00,CLR,,0.00,WeatherDisplay:10.37,2013-02-08 00:30:00,
2013-02-07 18:35:00,64.4,42.6,29.62,NNW,338,0.9,2.3,45,0.00,CLR,,0.00,WeatherDisplay:10.37,2013-02-08 00:35:00,
2013-02-07 18:40:00,64.2,43.0,29.62,WNW,292,0.0,0.0,46,0.00,CLR,,0.00,WeatherDisplay:10.37,2013-02-08 00:40:00,
2013-02-07 18:45:00,64.0,42.8,29.62,NNW,338,0.0,0.0,46,0.00,CLR,,0.00,WeatherDisplay:10.37,2013-02-08 00:45:00,
2013-02-07 18:50:00,63.9,43.2,29.62,NNW,338,0.0,0.0,47,0.00,CLR,,0.00,WeatherDisplay:10.37,2013-02-08 00:50:00,
2013-02-07 18:55:00,63.7,43.1,29.62,NNW,338,0.0,0.0,47,0.00,CLR,,0.00,WeatherDisplay:10.37,2013-02-08 00:55:00,
2013-02-07 19:00:00,63.3,42.7,29.62,NNW,338,0.9,1.1,47,0.00,CLR,,0.00,WeatherDisplay:10.37,2013-02-08 01:00:00,
2013-02-07 19:05:00,63.0,42.4,29.62,NNW,338,0.0,0.0,47,0.00,CLR,,0.00,WeatherDisplay:10.37,2013-02-08 01:05:00,
2013-02-07 19:10:00,62.4,42.5,29.62,NNW,338,0.0,0.0,48,0.00,CLR,,0.00,WeatherDisplay:10.37,2013-02-08 01:10:00,
2013-02-07 19:15:00,62.2,42.3,29.62,NNW,338,0.0,0.0,48,0.00,CLR,,0.00,WeatherDisplay:10.37,2013-02-08 01:15:00,
2013-02-07 19:20:00,61.9,42.5,29.62,NNW,338,0.0,0.0,49,0.00,CLR,,0.00,WeatherDisplay:10.37,2013-02-08 01:20:00,
2013-02-07 19:25:00,61.7,42.3,29.62,NE,45,0.0,0.0,49,0.00,CLR,,0.00,WeatherDisplay:10.37,2013-02-08 01:25:00,
2013-02-07 19:30:00,61.3,42.5,29.62,NE,45,0.0,0.0,50,0.00,CLR,,0.00,WeatherDisplay:10.37,2013-02-08 01:30:00,
2013-02-07 19:35:00,61.0,42.2,29.62,NE,45,0.0,0.0,50,0.00,CLR,,0.00,WeatherDisplay:10.37,2013-02-08 01:35:00,
2013-02-07 19:40:00,60.6,42.9,29.62,NE,45,0.0,0.0,52,0.00,CLR,,0.00,WeatherDisplay:10.37,2013-02-08 01:40:00,
2013-02-07 19:45:00,60.4,42.7,29.62,NE,45,0.0,0.0,52,0.00,CLR,,0.00,WeatherDisplay:10.37,2013-02-08 01:45:00,
2013-02-07 19:50:00,60.1,42.9,29.62,NE,45,0.0,0.0,53,0.00,CLR,,0.00,WeatherDisplay:10.37,2013-02-08 01:50:00,
2013-02-07 19:55:00,59.9,43.2,29.62,NE,45,0.0,0.0,54,0.00,CLR,,0.00,WeatherDisplay:10.37,2013-02-08 01:55:00,
2013-02-07 20:00:00,59.7,43.0,29.62,NE,45,0.0,0.0,54,0.00,CLR,,0.00,WeatherDisplay:10.37,2013-02-08 02:00:00,
2013-02-07 20:05:00,59.4,45.0,29.62,SSE,158,0.0,0.0,59,0.00,CLR,,0.00,WeatherDisplay:10.37,2013-02-08 02:05:00,
2013-02-07 20:10:00,59.5,47.3,29.62,SSE,158,0.0,0.0,64,0.00,CLR,,0.00,WeatherDisplay:10.37,2013-02-08 02:10:00,
2013-02-07 20:15:00,59.4,46.8,29.62,South,180,0.0,0.0,63,0.00,CLR,,0.00,WeatherDisplay:10.37,2013-02-08 02:15:00,
2013-02-07 20:20:00,59.2,44.9,29.65,ESE,112,0.0,0.0,59,0.00,CLR,,0.00,WeatherDisplay:10.37,2013-02-08 02:20:00,
2013-02-07 20:25:00,58.6,43.9,29.65,ESE,112,0.0,0.0,58,0.00,CLR,,0.00,WeatherDisplay:10.37,2013-02-08 02:25:00,
2013-02-07 20:30:00,58.1,43.8,29.65,ESE,112,0.0,0.0,59,0.00,CLR,,0.00,WeatherDisplay:10.37,2013-02-08 02:30:00,
2013-02-07 20:35:00,57.7,44.4,29.65,ESE,112,0.0,0.0,61,0.00,CLR,,0.00,WeatherDisplay:10.37,2013-02-08 02:35:00,
2013-02-07 20:40:00,57.4,45.3,29.65,ESE,112,0.0,0.0,64,0.00,CLR,,0.00,WeatherDisplay:10.37,2013-02-08 02:40:00,
2013-02-07 20:45:00,57.2,45.1,29.65,ESE,112,0.0,0.0,64,0.00,CLR,,0.00,WeatherDisplay:10.37,2013-02-08 02:45:00,
2013-02-07 20:50:00,57.2,44.7,29.65,ESE,112,0.0,0.0,63,0.00,CLR,,0.00,WeatherDisplay:10.37,2013-02-08 02:50:00,
2013-02-07 20:55:00,57.0,45.0,29.65,ESE,112,0.0,0.0,64,0.00,CLR,,0.00,WeatherDisplay:10.37,2013-02-08 02:55:00,
2013-02-07 21:00:00,56.7,44.6,29.65,ESE,112,0.0,0.0,64,0.00,CLR,,0.00,WeatherDisplay:10.37,2013-02-08 03:00:00,
2013-02-07 21:05:00,56.7,45.0,29.65,ESE,112,0.0,0.0,65,0.00,CLR,,0.00,WeatherDisplay:10.37,2013-02-08 03:05:00,
2013-02-07 21:10:00,56.5,44.9,29.65,ESE,112,0.0,0.0,65,0.00,CLR,,0.00,WeatherDisplay:10.37,2013-02-08 03:10:00,
2013-02-07 21:15:00,56.3,44.7,29.65,ESE,112,0.0,0.0,65,0.00,CLR,,0.00,WeatherDisplay:10.37,2013-02-08 03:15:00,
2013-02-07 21:20:00,56.3,45.9,29.65,SSE,158,0.0,0.0,68,0.00,CLR,,0.00,WeatherDisplay:10.37,2013-02-08 03:20:00,
2013-02-07 21:25:00,56.3,45.5,29.65,SSE,158,0.0,0.0,67,0.00,CLR,,0.00,WeatherDisplay:10.37,2013-02-08 03:25:00,
2013-02-07 21:30:00,56.3,45.5,29.65,SSE,158,0.0,0.0,67,0.00,CLR,,0.00,WeatherDisplay:10.37,2013-02-08 03:30:00,
2013-02-07 21:35:00,55.9,45.1,29.65,SSE,158,0.0,0.0,67,0.00,CLR,,0.00,WeatherDisplay:10.37,2013-02-08 03:35:00,
2013-02-07 21:40:00,55.9,45.1,29.65,SSE,158,0.0,0.0,67,0.00,CLR,,0.00,WeatherDisplay:10.37,2013-02-08 03:40:00,
2013-02-07 21:45:00,55.8,45.4,29.65,SSE,158,0.0,0.0,68,0.00,CLR,,0.00,WeatherDisplay:10.37,2013-02-08 03:45:00,
2013-02-07 21:50:00,55.6,45.2,29.65,SSE,158,0.0,0.0,68,0.00,CLR,,0.00,WeatherDisplay:10.37,2013-02-08 03:50:00,
2013-02-07 21:55:00,55.2,44.8,29.65,SSE,158,0.0,0.0,68,0.00,CLR,,0.00,WeatherDisplay:10.37,2013-02-08 03:55:00,
2013-02-07 22:00:00,55.2,45.2,29.65,SSE,158,0.0,0.0,69,0.00,CLR,,0.00,WeatherDisplay:10.37,2013-02-08 04:00:00,
2013-02-07 22:05:00,55.0,45.4,29.65,SSE,158,0.0,0.0,70,0.00,CLR,,0.00,WeatherDisplay:10.37,2013-02-08 04:05:00,
2013-02-07 22:10:00,54.9,44.9,29.65,SSE,158,0.0,0.0,69,0.00,CLR,,0.00,WeatherDisplay:10.37,2013-02-08 04:10:00,
2013-02-07 22:15:00,54.7,44.7,29.65,SSE,158,0.0,0.0,69,0.00,CLR,,0.00,WeatherDisplay:10.37,2013-02-08 04:15:00,
2013-02-07 22:20:00,54.7,44.7,29.65,SSE,158,0.0,0.0,69,0.00,CLR,,0.00,WeatherDisplay:10.37,2013-02-08 04:20:00,
2013-02-07 22:25:00,54.5,44.9,29.65,SSE,158,0.0,0.0,70,0.00,CLR,,0.00,WeatherDisplay:10.37,2013-02-08 04:25:00,
2013-02-07 22:30:00,54.5,45.3,29.65,SSE,158,0.0,0.0,71,0.00,CLR,,0.00,WeatherDisplay:10.37,2013-02-08 04:30:00,
2013-02-07 22:35:00,54.5,45.3,29.68,SSE,158,0.0,0.0,71,0.00,CLR,,0.00,WeatherDisplay:10.37,2013-02-08 04:35:00,
2013-02-07 22:40:00,54.7,45.5,29.68,SSE,158,0.0,0.0,71,0.00,CLR,,0.00,WeatherDisplay:10.37,2013-02-08 04:40:00,
2013-02-07 22:45:00,54.9,45.6,29.68,WSW,248,0.0,0.0,71,0.00,CLR,,0.00,WeatherDisplay:10.37,2013-02-08 04:45:00,
2013-02-07 22:50:00,54.9,45.6,29.68,SW,225,0.0,0.0,71,0.00,CLR,,0.00,WeatherDisplay:10.37,2013-02-08 04:50:00,
2013-02-07 22:55:00,54.9,46.0,29.68,SW,225,0.0,0.0,72,0.00,CLR,,0.00,WeatherDisplay:10.37,2013-02-08 04:55:00,
2013-02-07 23:00:00,54.7,45.8,29.68,SW,225,0.0,0.0,72,0.00,CLR,,0.00,WeatherDisplay:10.37,2013-02-08 05:00:00,
2013-02-07 23:05:00,54.7,45.8,29.65,SW,225,0.0,0.0,72,0.00,CLR,,0.00,WeatherDisplay:10.37,2013-02-08 05:05:00,
2013-02-07 23:10:00,54.3,45.5,29.65,SW,225,0.0,0.0,72,0.00,CLR,,0.00,WeatherDisplay:10.37,2013-02-08 05:10:00,
2013-02-07 23:14:00,54.1,45.3,29.65,West,270,0.0,0.0,72,0.00,CLR,,0.00,WeatherDisplay:10.37,2013-02-08 05:14:00,
2013-02-07 23:19:00,53.8,45.0,29.65,WNW,292,0.0,0.0,72,0.00,CLR,,0.00,WeatherDisplay:10.37,2013-02-08 05:19:00,
2013-02-07 23:23:00,53.4,44.6,29.65,WNW,292,0.0,0.0,72,0.00,CLR,,0.00,WeatherDisplay:10.37,2013-02-08 05:23:00,
2013-02-07 23:28:00,53.1,44.3,29.65,WNW,292,0.0,0.0,72,0.00,CLR,,0.00,WeatherDisplay:10.37,2013-02-08 05:28:00,
2013-02-07 23:33:00,53.1,44.3,29.65,WNW,292,0.0,0.0,72,0.00,CLR,,0.00,WeatherDisplay:10.37,2013-02-08 05:33:00,
2013-02-07 23:38:00,53.1,44.3,29.65,WNW,292,0.0,0.0,72,0.00,CLR,,0.00,WeatherDisplay:10.37,2013-02-08 05:38:00,
2013-02-07 23:43:00,53.1,44.6,29.65,WNW,292,0.0,0.0,73,0.00,CLR,,0.00,WeatherDisplay:10.37,2013-02-08 05:43:00,
2013-02-07 23:48:00,53.1,45.0,29.65,West,270,0.0,0.0,74,0.00,CLR,,0.00,WeatherDisplay:10.37,2013-02-08 05:48:00,
2013-02-07 23:54:00,53.8,47.1,29.65,SSE,158,0.0,0.0,78,0.00,CLR,,0.00,WeatherDisplay:10.37,2013-02-08 05:54:00,
2013-02-07 23:59:00,53.8,48.1,29.65,SSE,158,0.0,0.0,81,0.00,CLR,,0.00,WeatherDisplay:10.37,2013-02-08 05:59:00,